sensor_id;sensor_type;location;lat;lon;timestamp;temperature;humidity
22035;DHT22;11181;51.002;4.356;2023-06-10T00:01:44;25.10;94.50
22035;DHT22;11181;51.002;4.356;2023-06-10T00:04:12;25.00;94.70
22035;DHT22;11181;51.002;4.356;2023-06-10T00:06:39;25.00;94.70
22035;DHT22;11181;51.002;4.356;2023-06-10T00:09:06;25.10;94.50
22035;DHT22;11181;51.002;4.356;2023-06-10T00:11:35;25.10;94.50
22035;DHT22;11181;51.002;4.356;2023-06-10T00:14:03;25.10;94.50
22035;DHT22;11181;51.002;4.356;2023-06-10T00:16:31;25.00;94.60
22035;DHT22;11181;51.002;4.356;2023-06-10T00:19:01;25.10;94.40
22035;DHT22;11181;51.002;4.356;2023-06-10T00:21:29;25.00;94.60
22035;DHT22;11181;51.002;4.356;2023-06-10T00:24:03;25.00;94.60
22035;DHT22;11181;51.002;4.356;2023-06-10T00:26:30;25.10;94.60
22035;DHT22;11181;51.002;4.356;2023-06-10T00:28:57;25.10;94.60
22035;DHT22;11181;51.002;4.356;2023-06-10T00:31:24;25.10;94.50
22035;DHT22;11181;51.002;4.356;2023-06-10T00:33:53;25.20;94.60
22035;DHT22;11181;51.002;4.356;2023-06-10T00:36:20;25.30;94.40
22035;DHT22;11181;51.002;4.356;2023-06-10T00:38:47;25.30;94.50
22035;DHT22;11181;51.002;4.356;2023-06-10T00:41:14;25.30;94.90
22035;DHT22;11181;51.002;4.356;2023-06-10T00:43:41;25.10;94.80
22035;DHT22;11181;51.002;4.356;2023-06-10T00:46:08;25.00;94.90
22035;DHT22;11181;51.002;4.356;2023-06-10T00:48:37;25.00;94.90
22035;DHT22;11181;51.002;4.356;2023-06-10T00:51:06;25.10;95.00
22035;DHT22;11181;51.002;4.356;2023-06-10T00:53:35;25.20;95.00
22035;DHT22;11181;51.002;4.356;2023-06-10T00:56:04;25.20;95.50
22035;DHT22;11181;51.002;4.356;2023-06-10T00:58:31;25.30;95.10
22035;DHT22;11181;51.002;4.356;2023-06-10T01:00:58;25.30;95.20
22035;DHT22;11181;51.002;4.356;2023-06-10T01:03:26;25.30;95.30
22035;DHT22;11181;51.002;4.356;2023-06-10T01:06:00;25.30;95.40
22035;DHT22;11181;51.002;4.356;2023-06-10T01:08:35;25.10;95.60
22035;DHT22;11181;51.002;4.356;2023-06-10T01:11:08;24.90;95.90
22035;DHT22;11181;51.002;4.356;2023-06-10T01:13:41;24.80;96.10
22035;DHT22;11181;51.002;4.356;2023-06-10T01:16:09;24.80;96.10
22035;DHT22;11181;51.002;4.356;2023-06-10T01:18:36;24.80;96.10
22035;DHT22;11181;51.002;4.356;2023-06-10T01:21:04;24.60;96.30
22035;DHT22;11181;51.002;4.356;2023-06-10T01:23:34;24.60;96.60
22035;DHT22;11181;51.002;4.356;2023-06-10T01:26:05;24.50;96.80
22035;DHT22;11181;51.002;4.356;2023-06-10T01:28:43;24.50;96.90
22035;DHT22;11181;51.002;4.356;2023-06-10T01:31:17;24.50;97.00
22035;DHT22;11181;51.002;4.356;2023-06-10T01:33:49;24.50;96.90
22035;DHT22;11181;51.002;4.356;2023-06-10T01:36:18;24.70;96.90
22035;DHT22;11181;51.002;4.356;2023-06-10T01:38:48;24.80;97.00
22035;DHT22;11181;51.002;4.356;2023-06-10T01:41:17;24.80;97.00
22035;DHT22;11181;51.002;4.356;2023-06-10T01:43:45;24.90;97.10
22035;DHT22;11181;51.002;4.356;2023-06-10T01:46:12;24.90;97.10
22035;DHT22;11181;51.002;4.356;2023-06-10T01:48:39;24.90;97.10
22035;DHT22;11181;51.002;4.356;2023-06-10T01:51:06;24.90;97.20
22035;DHT22;11181;51.002;4.356;2023-06-10T01:53:33;24.90;97.30
22035;DHT22;11181;51.002;4.356;2023-06-10T01:56:01;24.80;97.40
22035;DHT22;11181;51.002;4.356;2023-06-10T01:58:28;24.90;97.40
22035;DHT22;11181;51.002;4.356;2023-06-10T02:00:55;24.80;97.40
22035;DHT22;11181;51.002;4.356;2023-06-10T02:03:22;24.70;97.50
22035;DHT22;11181;51.002;4.356;2023-06-10T02:05:49;24.70;97.60
22035;DHT22;11181;51.002;4.356;2023-06-10T02:08:16;24.70;98.10
22035;DHT22;11181;51.002;4.356;2023-06-10T02:10:43;24.60;97.90
22035;DHT22;11181;51.002;4.356;2023-06-10T02:13:11;24.60;98.10
22035;DHT22;11181;51.002;4.356;2023-06-10T02:15:38;24.50;98.20
22035;DHT22;11181;51.002;4.356;2023-06-10T02:18:05;24.50;98.30
22035;DHT22;11181;51.002;4.356;2023-06-10T02:20:32;24.50;98.50
22035;DHT22;11181;51.002;4.356;2023-06-10T02:22:59;24.50;98.60
22035;DHT22;11181;51.002;4.356;2023-06-10T02:25:29;24.40;98.80
22035;DHT22;11181;51.002;4.356;2023-06-10T02:27:56;24.40;98.80
22035;DHT22;11181;51.002;4.356;2023-06-10T02:30:24;24.30;99.00
22035;DHT22;11181;51.002;4.356;2023-06-10T02:32:51;24.30;99.20
22035;DHT22;11181;51.002;4.356;2023-06-10T02:35:18;24.20;99.40
22035;DHT22;11181;51.002;4.356;2023-06-10T02:37:45;24.20;99.60
22035;DHT22;11181;51.002;4.356;2023-06-10T02:40:12;24.10;99.50
22035;DHT22;11181;51.002;4.356;2023-06-10T02:42:39;24.00;99.70
22035;DHT22;11181;51.002;4.356;2023-06-10T02:45:07;24.00;99.80
22035;DHT22;11181;51.002;4.356;2023-06-10T02:47:37;23.90;99.90
22035;DHT22;11181;51.002;4.356;2023-06-10T02:50:05;23.80;99.90
22035;DHT22;11181;51.002;4.356;2023-06-10T02:52:32;23.80;99.90
22035;DHT22;11181;51.002;4.356;2023-06-10T02:54:59;23.70;99.90
22035;DHT22;11181;51.002;4.356;2023-06-10T02:57:26;23.70;99.90
22035;DHT22;11181;51.002;4.356;2023-06-10T02:59:53;23.60;99.90
22035;DHT22;11181;51.002;4.356;2023-06-10T03:02:20;23.60;99.90
22035;DHT22;11181;51.002;4.356;2023-06-10T03:04:48;23.50;99.90
22035;DHT22;11181;51.002;4.356;2023-06-10T03:07:16;23.50;99.90
22035;DHT22;11181;51.002;4.356;2023-06-10T03:09:47;23.50;99.90
22035;DHT22;11181;51.002;4.356;2023-06-10T03:12:13;23.50;99.90
22035;DHT22;11181;51.002;4.356;2023-06-10T03:14:41;23.40;99.90
22035;DHT22;11181;51.002;4.356;2023-06-10T03:17:08;23.40;99.90
22035;DHT22;11181;51.002;4.356;2023-06-10T03:19:35;23.40;99.90
22035;DHT22;11181;51.002;4.356;2023-06-10T03:22:12;23.40;99.90
22035;DHT22;11181;51.002;4.356;2023-06-10T03:24:39;23.30;99.90
22035;DHT22;11181;51.002;4.356;2023-06-10T03:27:07;23.30;99.90
22035;DHT22;11181;51.002;4.356;2023-06-10T03:29:35;23.40;99.90
22035;DHT22;11181;51.002;4.356;2023-06-10T03:32:02;23.40;99.90
22035;DHT22;11181;51.002;4.356;2023-06-10T03:34:29;23.20;99.90
22035;DHT22;11181;51.002;4.356;2023-06-10T03:36:56;23.20;99.90
22035;DHT22;11181;51.002;4.356;2023-06-10T03:39:25;23.10;99.90
22035;DHT22;11181;51.002;4.356;2023-06-10T03:41:54;22.90;99.90
22035;DHT22;11181;51.002;4.356;2023-06-10T03:44:21;22.90;99.90
22035;DHT22;11181;51.002;4.356;2023-06-10T03:46:48;22.80;99.90
22035;DHT22;11181;51.002;4.356;2023-06-10T03:49:15;22.80;99.90
22035;DHT22;11181;51.002;4.356;2023-06-10T03:51:42;22.90;99.90
22035;DHT22;11181;51.002;4.356;2023-06-10T03:54:09;22.80;99.90
22035;DHT22;11181;51.002;4.356;2023-06-10T03:56:38;22.80;99.90
22035;DHT22;11181;51.002;4.356;2023-06-10T03:59:05;22.80;99.90
22035;DHT22;11181;51.002;4.356;2023-06-10T04:01:32;22.80;99.90
22035;DHT22;11181;51.002;4.356;2023-06-10T04:04:00;22.70;99.90
22035;DHT22;11181;51.002;4.356;2023-06-10T04:06:28;22.60;99.90
22035;DHT22;11181;51.002;4.356;2023-06-10T04:08:55;22.50;99.90
22035;DHT22;11181;51.002;4.356;2023-06-10T04:11:23;22.60;99.90
22035;DHT22;11181;51.002;4.356;2023-06-10T04:13:52;22.40;99.90
22035;DHT22;11181;51.002;4.356;2023-06-10T04:16:20;22.30;99.90
22035;DHT22;11181;51.002;4.356;2023-06-10T04:18:47;22.30;99.90
22035;DHT22;11181;51.002;4.356;2023-06-10T04:21:14;22.30;99.90
22035;DHT22;11181;51.002;4.356;2023-06-10T04:23:41;22.20;99.90
22035;DHT22;11181;51.002;4.356;2023-06-10T04:26:08;22.20;99.90
22035;DHT22;11181;51.002;4.356;2023-06-10T04:28:36;22.00;99.90
22035;DHT22;11181;51.002;4.356;2023-06-10T04:31:04;22.00;99.90
22035;DHT22;11181;51.002;4.356;2023-06-10T04:33:31;21.90;99.90
22035;DHT22;11181;51.002;4.356;2023-06-10T04:35:58;21.90;99.90
22035;DHT22;11181;51.002;4.356;2023-06-10T04:38:25;21.90;99.90
22035;DHT22;11181;51.002;4.356;2023-06-10T04:40:52;21.90;99.90
22035;DHT22;11181;51.002;4.356;2023-06-10T04:43:19;21.90;99.90
22035;DHT22;11181;51.002;4.356;2023-06-10T04:45:46;21.80;99.90
22035;DHT22;11181;51.002;4.356;2023-06-10T04:48:14;21.80;99.90
22035;DHT22;11181;51.002;4.356;2023-06-10T04:50:41;21.90;99.90
22035;DHT22;11181;51.002;4.356;2023-06-10T04:53:08;21.90;99.90
22035;DHT22;11181;51.002;4.356;2023-06-10T04:55:35;22.10;99.90
22035;DHT22;11181;51.002;4.356;2023-06-10T04:58:02;22.00;99.90
22035;DHT22;11181;51.002;4.356;2023-06-10T05:00:29;22.10;99.90
22035;DHT22;11181;51.002;4.356;2023-06-10T05:02:56;22.20;99.90
22035;DHT22;11181;51.002;4.356;2023-06-10T05:05:24;22.10;99.90
22035;DHT22;11181;51.002;4.356;2023-06-10T05:07:53;22.20;99.90
22035;DHT22;11181;51.002;4.356;2023-06-10T05:10:20;22.20;99.90
22035;DHT22;11181;51.002;4.356;2023-06-10T05:12:47;22.10;99.90
22035;DHT22;11181;51.002;4.356;2023-06-10T05:15:13;22.10;99.90
22035;DHT22;11181;51.002;4.356;2023-06-10T05:17:42;22.00;99.90
22035;DHT22;11181;51.002;4.356;2023-06-10T05:20:10;22.10;99.90
22035;DHT22;11181;51.002;4.356;2023-06-10T05:22:40;22.20;99.90
22035;DHT22;11181;51.002;4.356;2023-06-10T05:25:07;22.20;99.90
22035;DHT22;11181;51.002;4.356;2023-06-10T05:27:34;22.20;99.90
22035;DHT22;11181;51.002;4.356;2023-06-10T05:30:01;22.20;99.90
22035;DHT22;11181;51.002;4.356;2023-06-10T05:32:29;22.10;99.90
22035;DHT22;11181;51.002;4.356;2023-06-10T05:34:56;22.10;99.90
22035;DHT22;11181;51.002;4.356;2023-06-10T05:37:23;22.10;99.90
22035;DHT22;11181;51.002;4.356;2023-06-10T05:39:51;22.30;99.90
22035;DHT22;11181;51.002;4.356;2023-06-10T05:42:18;22.30;99.90
22035;DHT22;11181;51.002;4.356;2023-06-10T05:44:45;22.50;99.90
22035;DHT22;11181;51.002;4.356;2023-06-10T05:47:12;22.50;99.90
22035;DHT22;11181;51.002;4.356;2023-06-10T05:49:39;22.60;99.90
22035;DHT22;11181;51.002;4.356;2023-06-10T05:52:06;22.60;99.90
22035;DHT22;11181;51.002;4.356;2023-06-10T05:54:33;22.60;99.90
22035;DHT22;11181;51.002;4.356;2023-06-10T05:57:03;22.70;99.90
22035;DHT22;11181;51.002;4.356;2023-06-10T05:59:31;22.70;99.90
22035;DHT22;11181;51.002;4.356;2023-06-10T06:01:58;22.90;99.90
22035;DHT22;11181;51.002;4.356;2023-06-10T06:04:25;23.10;99.90
22035;DHT22;11181;51.002;4.356;2023-06-10T06:06:52;23.20;99.90
22035;DHT22;11181;51.002;4.356;2023-06-10T06:09:19;23.10;99.90
22035;DHT22;11181;51.002;4.356;2023-06-10T06:11:46;23.30;99.90
22035;DHT22;11181;51.002;4.356;2023-06-10T06:14:14;23.40;99.90
22035;DHT22;11181;51.002;4.356;2023-06-10T06:16:41;23.50;99.90
22035;DHT22;11181;51.002;4.356;2023-06-10T06:19:08;23.50;99.90
22035;DHT22;11181;51.002;4.356;2023-06-10T06:21:36;23.60;99.90
22035;DHT22;11181;51.002;4.356;2023-06-10T06:24:04;23.70;99.90
22035;DHT22;11181;51.002;4.356;2023-06-10T06:26:31;23.60;99.90
22035;DHT22;11181;51.002;4.356;2023-06-10T06:28:57;23.60;99.90
22035;DHT22;11181;51.002;4.356;2023-06-10T06:31:26;23.80;99.90
22035;DHT22;11181;51.002;4.356;2023-06-10T06:33:53;23.90;99.90
22035;DHT22;11181;51.002;4.356;2023-06-10T06:36:20;23.90;99.90
22035;DHT22;11181;51.002;4.356;2023-06-10T06:38:47;24.00;99.90
22035;DHT22;11181;51.002;4.356;2023-06-10T06:41:14;24.00;99.90
22035;DHT22;11181;51.002;4.356;2023-06-10T06:43:41;24.10;99.90
22035;DHT22;11181;51.002;4.356;2023-06-10T06:46:08;24.30;99.90
22035;DHT22;11181;51.002;4.356;2023-06-10T06:48:37;24.30;99.90
22035;DHT22;11181;51.002;4.356;2023-06-10T06:51:04;24.30;99.90
22035;DHT22;11181;51.002;4.356;2023-06-10T06:53:31;24.30;99.90
22035;DHT22;11181;51.002;4.356;2023-06-10T06:55:58;24.40;99.90
22035;DHT22;11181;51.002;4.356;2023-06-10T06:58:25;24.60;99.90
22035;DHT22;11181;51.002;4.356;2023-06-10T07:00:52;24.50;99.90
22035;DHT22;11181;51.002;4.356;2023-06-10T07:03:19;24.60;99.90
22035;DHT22;11181;51.002;4.356;2023-06-10T07:05:48;24.60;99.90
22035;DHT22;11181;51.002;4.356;2023-06-10T07:08:15;24.80;99.90
22035;DHT22;11181;51.002;4.356;2023-06-10T07:10:42;25.10;99.90
22035;DHT22;11181;51.002;4.356;2023-06-10T07:13:09;25.20;99.90
22035;DHT22;11181;51.002;4.356;2023-06-10T07:15:36;25.40;99.90
22035;DHT22;11181;51.002;4.356;2023-06-10T07:18:03;25.60;99.90
22035;DHT22;11181;51.002;4.356;2023-06-10T07:20:30;25.90;99.90
22035;DHT22;11181;51.002;4.356;2023-06-10T07:22:58;25.80;99.90
22035;DHT22;11181;51.002;4.356;2023-06-10T07:25:25;26.00;99.90
22035;DHT22;11181;51.002;4.356;2023-06-10T07:27:52;26.00;99.90
22035;DHT22;11181;51.002;4.356;2023-06-10T07:30:19;26.10;99.90
22035;DHT22;11181;51.002;4.356;2023-06-10T07:32:46;26.30;99.90
22035;DHT22;11181;51.002;4.356;2023-06-10T07:35:14;26.20;99.90
22035;DHT22;11181;51.002;4.356;2023-06-10T07:37:41;26.30;99.90
22035;DHT22;11181;51.002;4.356;2023-06-10T07:40:10;26.40;99.90
22035;DHT22;11181;51.002;4.356;2023-06-10T07:42:36;26.60;99.90
22035;DHT22;11181;51.002;4.356;2023-06-10T07:45:04;26.80;99.90
22035;DHT22;11181;51.002;4.356;2023-06-10T07:47:33;26.90;99.90
22035;DHT22;11181;51.002;4.356;2023-06-10T07:50:00;27.10;99.90
22035;DHT22;11181;51.002;4.356;2023-06-10T07:52:27;27.30;99.90
22035;DHT22;11181;51.002;4.356;2023-06-10T07:54:55;27.40;99.90
22035;DHT22;11181;51.002;4.356;2023-06-10T07:57:23;27.50;99.90
22035;DHT22;11181;51.002;4.356;2023-06-10T07:59:50;27.70;99.90
22035;DHT22;11181;51.002;4.356;2023-06-10T08:02:17;27.90;99.90
22035;DHT22;11181;51.002;4.356;2023-06-10T08:04:43;28.00;99.90
22035;DHT22;11181;51.002;4.356;2023-06-10T08:07:10;28.10;99.90
22035;DHT22;11181;51.002;4.356;2023-06-10T08:09:37;28.20;99.90
22035;DHT22;11181;51.002;4.356;2023-06-10T08:12:06;28.40;99.90
22035;DHT22;11181;51.002;4.356;2023-06-10T08:14:34;28.50;99.90
22035;DHT22;11181;51.002;4.356;2023-06-10T08:17:02;28.80;99.90
22035;DHT22;11181;51.002;4.356;2023-06-10T08:19:31;28.80;99.90
22035;DHT22;11181;51.002;4.356;2023-06-10T08:21:58;29.00;99.90
22035;DHT22;11181;51.002;4.356;2023-06-10T08:24:25;29.20;99.90
22035;DHT22;11181;51.002;4.356;2023-06-10T08:26:51;29.20;99.90
22035;DHT22;11181;51.002;4.356;2023-06-10T08:29:18;29.20;99.90
22035;DHT22;11181;51.002;4.356;2023-06-10T08:31:47;29.10;99.50
22035;DHT22;11181;51.002;4.356;2023-06-10T08:34:13;29.20;99.40
22035;DHT22;11181;51.002;4.356;2023-06-10T08:36:40;29.50;99.50
22035;DHT22;11181;51.002;4.356;2023-06-10T08:39:08;29.70;98.80
22035;DHT22;11181;51.002;4.356;2023-06-10T08:41:37;29.70;98.80
22035;DHT22;11181;51.002;4.356;2023-06-10T08:44:11;29.60;98.10
22035;DHT22;11181;51.002;4.356;2023-06-10T08:46:42;29.50;99.10
22035;DHT22;11181;51.002;4.356;2023-06-10T08:49:18;29.60;99.00
22035;DHT22;11181;51.002;4.356;2023-06-10T08:51:48;29.90;98.20
22035;DHT22;11181;51.002;4.356;2023-06-10T08:54:18;30.10;97.70
22035;DHT22;11181;51.002;4.356;2023-06-10T08:56:49;30.30;97.10
22035;DHT22;11181;51.002;4.356;2023-06-10T08:59:17;30.40;97.10
22035;DHT22;11181;51.002;4.356;2023-06-10T09:01:44;30.20;96.40
22035;DHT22;11181;51.002;4.356;2023-06-10T09:04:12;30.40;96.10
22035;DHT22;11181;51.002;4.356;2023-06-10T09:06:40;30.60;96.10
22035;DHT22;11181;51.002;4.356;2023-06-10T09:09:07;30.90;95.80
22035;DHT22;11181;51.002;4.356;2023-06-10T09:11:34;31.10;95.40
22035;DHT22;11181;51.002;4.356;2023-06-10T09:14:01;31.30;95.40
22035;DHT22;11181;51.002;4.356;2023-06-10T09:16:28;31.70;95.30
22035;DHT22;11181;51.002;4.356;2023-06-10T09:18:55;31.90;94.00
22035;DHT22;11181;51.002;4.356;2023-06-10T09:21:24;31.90;94.10
22035;DHT22;11181;51.002;4.356;2023-06-10T09:23:51;32.00;92.50
22035;DHT22;11181;51.002;4.356;2023-06-10T09:26:18;31.90;91.40
22035;DHT22;11181;51.002;4.356;2023-06-10T09:28:48;31.70;91.00
22035;DHT22;11181;51.002;4.356;2023-06-10T09:31:16;31.90;91.20
22035;DHT22;11181;51.002;4.356;2023-06-10T09:33:45;31.90;91.00
22035;DHT22;11181;51.002;4.356;2023-06-10T09:36:21;32.30;91.30
22035;DHT22;11181;51.002;4.356;2023-06-10T09:38:50;32.50;90.60
22035;DHT22;11181;51.002;4.356;2023-06-10T09:41:17;32.50;89.80
22035;DHT22;11181;51.002;4.356;2023-06-10T09:43:45;32.50;89.70
22035;DHT22;11181;51.002;4.356;2023-06-10T09:46:15;32.60;90.40
22035;DHT22;11181;51.002;4.356;2023-06-10T09:48:45;32.80;90.70
22035;DHT22;11181;51.002;4.356;2023-06-10T09:51:12;32.90;90.50
22035;DHT22;11181;51.002;4.356;2023-06-10T09:53:40;33.00;86.60
22035;DHT22;11181;51.002;4.356;2023-06-10T09:56:08;32.90;85.60
22035;DHT22;11181;51.002;4.356;2023-06-10T09:58:38;32.90;87.10
22035;DHT22;11181;51.002;4.356;2023-06-10T10:01:10;33.00;87.10
22035;DHT22;11181;51.002;4.356;2023-06-10T10:03:46;33.20;85.30
22035;DHT22;11181;51.002;4.356;2023-06-10T10:06:14;33.30;82.80
22035;DHT22;11181;51.002;4.356;2023-06-10T10:08:41;33.20;82.30
22035;DHT22;11181;51.002;4.356;2023-06-10T10:11:10;33.30;81.70
22035;DHT22;11181;51.002;4.356;2023-06-10T10:13:38;33.40;81.40
22035;DHT22;11181;51.002;4.356;2023-06-10T10:16:09;33.40;80.70
22035;DHT22;11181;51.002;4.356;2023-06-10T10:18:39;33.50;82.30
22035;DHT22;11181;51.002;4.356;2023-06-10T10:21:12;33.70;82.70
22035;DHT22;11181;51.002;4.356;2023-06-10T10:23:44;33.90;81.10
22035;DHT22;11181;51.002;4.356;2023-06-10T10:26:17;34.10;81.70
22035;DHT22;11181;51.002;4.356;2023-06-10T10:28:50;34.20;79.00
22035;DHT22;11181;51.002;4.356;2023-06-10T10:31:19;34.00;77.80
22035;DHT22;11181;51.002;4.356;2023-06-10T10:33:55;33.70;79.10
22035;DHT22;11181;51.002;4.356;2023-06-10T10:36:25;33.60;79.60
22035;DHT22;11181;51.002;4.356;2023-06-10T10:38:52;33.60;77.40
22035;DHT22;11181;51.002;4.356;2023-06-10T10:41:21;33.80;79.50
22035;DHT22;11181;51.002;4.356;2023-06-10T10:43:49;34.30;79.30
22035;DHT22;11181;51.002;4.356;2023-06-10T10:46:17;34.70;76.80
22035;DHT22;11181;51.002;4.356;2023-06-10T10:48:44;35.00;75.40
22035;DHT22;11181;51.002;4.356;2023-06-10T10:51:12;35.20;75.50
22035;DHT22;11181;51.002;4.356;2023-06-10T10:53:42;35.10;76.30
22035;DHT22;11181;51.002;4.356;2023-06-10T10:56:13;35.00;76.50
22035;DHT22;11181;51.002;4.356;2023-06-10T10:58:42;34.60;73.60
22035;DHT22;11181;51.002;4.356;2023-06-10T11:01:12;34.50;74.10
22035;DHT22;11181;51.002;4.356;2023-06-10T11:03:43;34.50;72.80
22035;DHT22;11181;51.002;4.356;2023-06-10T11:06:13;34.40;74.50
22035;DHT22;11181;51.002;4.356;2023-06-10T11:08:47;34.60;74.90
22035;DHT22;11181;51.002;4.356;2023-06-10T11:11:20;34.60;71.40
22035;DHT22;11181;51.002;4.356;2023-06-10T11:14:07;34.80;72.30
22035;DHT22;11181;51.002;4.356;2023-06-10T11:16:39;34.70;72.10
22035;DHT22;11181;51.002;4.356;2023-06-10T11:19:07;34.90;74.40
22035;DHT22;11181;51.002;4.356;2023-06-10T11:21:45;35.30;73.70
22035;DHT22;11181;51.002;4.356;2023-06-10T11:24:23;35.30;72.10
22035;DHT22;11181;51.002;4.356;2023-06-10T11:26:51;35.40;69.30
22035;DHT22;11181;51.002;4.356;2023-06-10T11:29:20;35.40;69.00
22035;DHT22;11181;51.002;4.356;2023-06-10T11:31:50;35.30;69.40
22035;DHT22;11181;51.002;4.356;2023-06-10T11:34:24;35.20;69.70
22035;DHT22;11181;51.002;4.356;2023-06-10T11:36:52;35.10;69.90
22035;DHT22;11181;51.002;4.356;2023-06-10T11:39:21;35.10;69.80
22035;DHT22;11181;51.002;4.356;2023-06-10T11:41:50;35.10;69.50
22035;DHT22;11181;51.002;4.356;2023-06-10T11:44:17;35.20;72.50
22035;DHT22;11181;51.002;4.356;2023-06-10T11:46:47;35.60;72.60
22035;DHT22;11181;51.002;4.356;2023-06-10T11:49:14;35.40;70.90
22035;DHT22;11181;51.002;4.356;2023-06-10T11:51:41;35.20;70.70
22035;DHT22;11181;51.002;4.356;2023-06-10T11:54:14;35.50;71.50
22035;DHT22;11181;51.002;4.356;2023-06-10T11:56:41;35.80;70.00
22035;DHT22;11181;51.002;4.356;2023-06-10T11:59:08;36.30;68.70
22035;DHT22;11181;51.002;4.356;2023-06-10T12:01:37;36.50;66.60
22035;DHT22;11181;51.002;4.356;2023-06-10T12:04:08;36.30;67.50
22035;DHT22;11181;51.002;4.356;2023-06-10T12:06:39;36.20;68.00
22035;DHT22;11181;51.002;4.356;2023-06-10T12:09:06;36.20;68.80
22035;DHT22;11181;51.002;4.356;2023-06-10T12:11:33;36.10;65.90
22035;DHT22;11181;51.002;4.356;2023-06-10T12:14:01;36.30;66.50
22035;DHT22;11181;51.002;4.356;2023-06-10T12:16:29;35.90;64.00
22035;DHT22;11181;51.002;4.356;2023-06-10T12:19:01;35.80;64.20
22035;DHT22;11181;51.002;4.356;2023-06-10T12:21:32;35.50;65.10
22035;DHT22;11181;51.002;4.356;2023-06-10T12:24:05;35.80;67.00
22035;DHT22;11181;51.002;4.356;2023-06-10T12:26:39;36.00;63.80
22035;DHT22;11181;51.002;4.356;2023-06-10T12:29:20;36.20;63.60
22035;DHT22;11181;51.002;4.356;2023-06-10T12:31:56;36.40;64.50
22035;DHT22;11181;51.002;4.356;2023-06-10T12:34:30;36.40;63.20
22035;DHT22;11181;51.002;4.356;2023-06-10T12:36:59;36.30;62.40
22035;DHT22;11181;51.002;4.356;2023-06-10T12:39:26;36.50;62.30
22035;DHT22;11181;51.002;4.356;2023-06-10T12:41:53;36.60;63.00
22035;DHT22;11181;51.002;4.356;2023-06-10T12:44:31;36.70;61.70
22035;DHT22;11181;51.002;4.356;2023-06-10T12:46:58;36.50;63.00
22035;DHT22;11181;51.002;4.356;2023-06-10T12:49:25;36.40;63.80
22035;DHT22;11181;51.002;4.356;2023-06-10T12:51:53;36.30;63.20
22035;DHT22;11181;51.002;4.356;2023-06-10T12:54:22;36.50;64.00
22035;DHT22;11181;51.002;4.356;2023-06-10T12:56:49;36.30;62.40
22035;DHT22;11181;51.002;4.356;2023-06-10T12:59:16;36.50;62.50
22035;DHT22;11181;51.002;4.356;2023-06-10T13:01:43;36.40;60.90
22035;DHT22;11181;51.002;4.356;2023-06-10T13:04:10;36.50;60.70
22035;DHT22;11181;51.002;4.356;2023-06-10T13:06:38;36.70;60.50
22035;DHT22;11181;51.002;4.356;2023-06-10T13:09:08;36.70;62.00
22035;DHT22;11181;51.002;4.356;2023-06-10T13:11:36;36.60;60.40
22035;DHT22;11181;51.002;4.356;2023-06-10T13:14:04;36.90;60.50
22035;DHT22;11181;51.002;4.356;2023-06-10T13:16:31;37.20;61.00
22035;DHT22;11181;51.002;4.356;2023-06-10T13:18:58;37.20;60.10
22035;DHT22;11181;51.002;4.356;2023-06-10T13:21:26;37.10;59.30
22035;DHT22;11181;51.002;4.356;2023-06-10T13:23:53;36.50;59.00
22035;DHT22;11181;51.002;4.356;2023-06-10T13:26:20;36.30;59.20
22035;DHT22;11181;51.002;4.356;2023-06-10T13:28:51;36.10;59.40
22035;DHT22;11181;51.002;4.356;2023-06-10T13:31:18;36.20;59.50
22035;DHT22;11181;51.002;4.356;2023-06-10T13:33:46;36.40;59.80
22035;DHT22;11181;51.002;4.356;2023-06-10T13:36:13;36.70;59.60
22035;DHT22;11181;51.002;4.356;2023-06-10T13:38:42;37.00;59.80
22035;DHT22;11181;51.002;4.356;2023-06-10T13:41:09;36.50;58.90
22035;DHT22;11181;51.002;4.356;2023-06-10T13:43:36;36.50;60.00
22035;DHT22;11181;51.002;4.356;2023-06-10T13:46:04;36.60;58.90
22035;DHT22;11181;51.002;4.356;2023-06-10T13:48:31;36.40;59.30
22035;DHT22;11181;51.002;4.356;2023-06-10T13:50:59;36.20;59.20
22035;DHT22;11181;51.002;4.356;2023-06-10T13:53:26;36.40;59.70
22035;DHT22;11181;51.002;4.356;2023-06-10T13:55:53;36.70;58.70
22035;DHT22;11181;51.002;4.356;2023-06-10T13:58:20;37.00;59.20
22035;DHT22;11181;51.002;4.356;2023-06-10T14:00:46;37.40;57.80
22035;DHT22;11181;51.002;4.356;2023-06-10T14:03:15;37.50;57.80
22035;DHT22;11181;51.002;4.356;2023-06-10T14:05:42;37.00;57.70
22035;DHT22;11181;51.002;4.356;2023-06-10T14:08:09;36.50;57.30
22035;DHT22;11181;51.002;4.356;2023-06-10T14:10:36;36.20;58.40
22035;DHT22;11181;51.002;4.356;2023-06-10T14:13:02;36.10;59.00
22035;DHT22;11181;51.002;4.356;2023-06-10T14:15:30;36.10;58.10
22035;DHT22;11181;51.002;4.356;2023-06-10T14:17:57;35.90;59.30
22035;DHT22;11181;51.002;4.356;2023-06-10T14:20:26;36.20;58.40
22035;DHT22;11181;51.002;4.356;2023-06-10T14:22:57;36.20;58.20
22035;DHT22;11181;51.002;4.356;2023-06-10T14:25:23;36.50;58.70
22035;DHT22;11181;51.002;4.356;2023-06-10T14:27:51;36.40;59.10
22035;DHT22;11181;51.002;4.356;2023-06-10T14:30:17;36.60;58.30
22035;DHT22;11181;51.002;4.356;2023-06-10T14:32:45;36.60;58.30
22035;DHT22;11181;51.002;4.356;2023-06-10T14:35:12;36.50;57.20
22035;DHT22;11181;51.002;4.356;2023-06-10T14:37:40;36.40;57.20
22035;DHT22;11181;51.002;4.356;2023-06-10T14:40:08;36.60;57.30
22035;DHT22;11181;51.002;4.356;2023-06-10T14:42:35;36.80;58.10
22035;DHT22;11181;51.002;4.356;2023-06-10T14:45:02;36.90;58.20
22035;DHT22;11181;51.002;4.356;2023-06-10T14:47:29;36.60;57.00
22035;DHT22;11181;51.002;4.356;2023-06-10T14:49:56;36.60;56.70
22035;DHT22;11181;51.002;4.356;2023-06-10T14:52:23;36.90;58.30
22035;DHT22;11181;51.002;4.356;2023-06-10T14:54:51;37.00;57.60
22035;DHT22;11181;51.002;4.356;2023-06-10T14:57:18;36.80;56.30
22035;DHT22;11181;51.002;4.356;2023-06-10T14:59:45;36.40;57.20
22035;DHT22;11181;51.002;4.356;2023-06-10T15:02:12;36.50;57.90
22035;DHT22;11181;51.002;4.356;2023-06-10T15:04:39;36.00;57.60
22035;DHT22;11181;51.002;4.356;2023-06-10T15:07:05;35.70;57.50
22035;DHT22;11181;51.002;4.356;2023-06-10T15:09:32;35.80;57.90
22035;DHT22;11181;51.002;4.356;2023-06-10T15:12:01;36.20;57.70
22035;DHT22;11181;51.002;4.356;2023-06-10T15:14:29;36.30;57.10
22035;DHT22;11181;51.002;4.356;2023-06-10T15:16:57;36.10;58.50
22035;DHT22;11181;51.002;4.356;2023-06-10T15:19:24;36.20;58.60
22035;DHT22;11181;51.002;4.356;2023-06-10T15:21:52;36.40;58.30
22035;DHT22;11181;51.002;4.356;2023-06-10T15:24:19;36.20;57.70
22035;DHT22;11181;51.002;4.356;2023-06-10T15:26:46;36.10;56.80
22035;DHT22;11181;51.002;4.356;2023-06-10T15:29:14;36.10;56.80
22035;DHT22;11181;51.002;4.356;2023-06-10T15:31:41;36.40;57.40
22035;DHT22;11181;51.002;4.356;2023-06-10T15:34:08;36.60;56.80
22035;DHT22;11181;51.002;4.356;2023-06-10T15:36:35;36.60;56.10